London Mills, Illinois
Current Conditions -  °F | °C
As of 10:35 PM on Saturday 22 Nov 2014 (Local Time) from KGBG Reporting Station
Overcast Overcast  
Wind Chill: 51°   Ceiling: 1100
Heat Index: 51°   Visibility: 10mi
Dew Point: 48°   Wind: 15mph
Humidity: 89%   Direction: 180°S
Pressure: 29.79"   Gusts: 22mph
Location:  40.71°N, 90.27°W
Report Text: KGBG 230435Z AUTO 18013G19KT 10SM OVC011 11/09 A2979 RMK AO2 T01070090
Loading
Personal Weather Stations






























Interactive Weather Map New forecast layout! Learn more

10-Day Weather Forecast

Advertisements
Track Severe Weather on mobile